Terminal Aerodrome Forecast
Issued by NWS Lake Charles, LA

Home | Current Version | Previous Version | Text Only | Print | Product List | Glossary On
Versions: 1 2 3 4 5 6 7 8 9 10 11 12 13 14 15
808
FTUS44 KLCH 311126
TAFAEX
TAF
KAEX 311126Z 3112/0112 00000KT 4SM BR SKC
     FM311400 03006KT P6SM FEW050
     FM010800 00000KT 5SM BR SKC=

USA.gov is the U.S. government's official web portal to all federal, state and local government web resources and services.